Spring Garden Atmospheric Data: 05/15/2019 Summary  Detailed Graphs  Station List

  Temperature     Wind Precipitation Visibility
Timestamp Air Wet
Bulb
Dew-
point
24-hr
Max
24-hr
Min
Relative
Humidity
Atmospheric
Pressure
Avg
Speed
Avg
Dir
Spot
Speed
Spot
Dir
Max
Speed
Max
Dir
  Rate Situation Start End 1 hr 3 hr 6 hr 12 hr 24 hr   Situation
Date Time °F °F °F °F °F % in Hg mph ° mph ° mph ° Y/N in/hr text Date Time Date Time in in in in in mi text
05/15/2019 12:08 AM 49.28 43.88 38.12 78.98 38.12 63.0 Not Reported 2.91 E 4.03 SE 3.58 E No 0.000 No Precipitation 05/06/2019 06:27 PM 05/06/2019 07:12 PM 0.000 0.000 0.000 0.000 0.000 Not Reported Not Reported
05/15/2019 12:23 AM 49.28 43.70 37.76 78.98 38.12 64.0 Not Reported 0.89 E 1.12 SE 3.80 SE No 0.000 No Precipitation 05/06/2019 06:27 PM 05/06/2019 07:12 PM 0.000 0.000 0.000 0.000 0.000 Not Reported Not Reported
05/15/2019 12:38 AM 49.28 43.70 37.94 78.98 38.12 64.0 Not Reported 2.01 SE 3.80 SE 4.25 SE No 0.000 No Precipitation 05/06/2019 06:27 PM 05/06/2019 07:12 PM 0.000 0.000 0.000 0.000 0.000 Not Reported Not Reported
05/15/2019 12:53 AM 48.92 44.06 37.94 78.98 38.12 66.0 Not Reported 3.80 SE 3.36 SE 5.37 SE No 0.000 No Precipitation 05/06/2019 06:27 PM 05/06/2019 07:12 PM 0.000 0.000 0.000 0.000 0.000 Not Reported Not Reported
05/15/2019 01:08 AM 48.56 43.52 38.12 70.52 42.62 67.0 Not Reported 0.89 SE 2.24 S 4.03 SE No 0.000 No Precipitation 05/06/2019 06:27 PM 05/06/2019 07:12 PM 0.000 0.000 0.000 0.000 0.000 Not Reported Not Reported
05/15/2019 01:23 AM 48.20 43.34 38.30 70.52 42.62 68.0 Not Reported 1.79 SE 1.79 SE 4.70 SE No 0.000 No Precipitation 05/06/2019 06:27 PM 05/06/2019 07:12 PM 0.000 0.000 0.000 0.000 0.000 Not Reported Not Reported
05/15/2019 01:38 AM 48.02 43.34 38.12 70.52 42.62 68.0 Not Reported 2.01 E 2.24 NE 4.47 SE No 0.000 No Precipitation 05/06/2019 06:27 PM 05/06/2019 07:12 PM 0.000 0.000 0.000 0.000 0.000 Not Reported Not Reported
05/15/2019 01:53 AM 47.30 42.98 37.94 70.52 42.62 69.0 Not Reported 0.45 E 0.45 E 3.36 SE No 0.000 No Precipitation 05/06/2019 06:27 PM 05/06/2019 07:12 PM 0.000 0.000 0.000 0.000 0.000 Not Reported Not Reported
05/15/2019 02:08 AM 46.58 42.80 38.12 70.52 42.62 71.0 Not Reported 0.67 E 0.89 E 1.12 E No 0.000 No Precipitation 05/06/2019 06:27 PM 05/06/2019 07:12 PM 0.000 0.000 0.000 0.000 0.000 Not Reported Not Reported
05/15/2019 02:23 AM 46.58 42.80 38.12 70.52 42.62 72.0 Not Reported 0.00 E 0.00 E 2.46 E No 0.000 No Precipitation 05/06/2019 06:27 PM 05/06/2019 07:12 PM 0.000 0.000 0.000 0.000 0.000 Not Reported Not Reported
05/15/2019 02:38 AM 46.22 42.26 38.12 70.52 42.62 73.0 Not Reported 0.45 E 0.45 E 2.91 SE No 0.000 No Precipitation 05/06/2019 06:27 PM 05/06/2019 07:12 PM 0.000 0.000 0.000 0.000 0.000 Not Reported Not Reported
05/15/2019 02:53 AM 45.68 42.26 38.30 70.52 42.62 74.0 Not Reported 0.22 E 0.67 E 1.57 SE No 0.000 No Precipitation 05/06/2019 06:27 PM 05/06/2019 07:12 PM 0.000 0.000 0.000 0.000 0.000 Not Reported Not Reported
05/15/2019 03:08 AM 45.68 42.08 38.12 70.52 42.62 74.0 Not Reported 2.01 SE 0.89 NE 3.58 SE No 0.000 No Precipitation 05/06/2019 06:27 PM 05/06/2019 07:12 PM 0.000 0.000 0.000 0.000 0.000 Not Reported Not Reported
05/15/2019 03:23 AM 45.68 42.08 38.30 70.52 42.62 75.0 Not Reported 1.34 SE 0.67 SE 3.58 S No 0.000 No Precipitation 05/06/2019 06:27 PM 05/06/2019 07:12 PM 0.000 0.000 0.000 0.000 0.000 Not Reported Not Reported
05/15/2019 03:38 AM 45.68 42.08 37.94 70.52 42.62 74.0 Not Reported 0.67 E 0.00 E 2.24 SE No 0.000 No Precipitation 05/06/2019 06:27 PM 05/06/2019 07:12 PM 0.000 0.000 0.000 0.000 0.000 Not Reported Not Reported
05/15/2019 03:53 AM 45.68 42.08 38.12 70.52 42.62 74.0 Not Reported 0.89 SE 1.57 SE 2.91 SE No 0.000 No Precipitation 05/06/2019 06:27 PM 05/06/2019 07:12 PM 0.000 0.000 0.000 0.000 0.000 Not Reported Not Reported
05/15/2019 04:08 AM 45.68 42.26 38.12 70.52 42.62 74.0 Not Reported 3.13 SE 3.58 SE 2.24 E No 0.000 No Precipitation 05/06/2019 06:27 PM 05/06/2019 07:12 PM 0.000 0.000 0.000 0.000 0.000 Not Reported Not Reported
05/15/2019 04:23 AM 45.86 42.08 37.76 70.52 42.62 73.0 Not Reported 1.57 SE 1.12 SE 6.04 SE No 0.000 No Precipitation 05/06/2019 06:27 PM 05/06/2019 07:12 PM 0.000 0.000 0.000 0.000 0.000 Not Reported Not Reported
05/15/2019 04:38 AM 45.68 42.08 38.30 70.52 42.62 75.0 Not Reported 0.00 N 0.00 E 2.68 SE No 0.000 No Precipitation 05/06/2019 06:27 PM 05/06/2019 07:12 PM 0.000 0.000 0.000 0.000 0.000 Not Reported Not Reported
05/15/2019 04:53 AM 45.86 42.26 38.12 70.52 42.62 74.0 Not Reported 0.89 SE 0.00 SE 1.79 SE No 0.000 No Precipitation 05/06/2019 06:27 PM 05/06/2019 07:12 PM 0.000 0.000 0.000 0.000 0.000 Not Reported Not Reported
05/15/2019 05:08 AM 45.86 42.08 38.48 70.52 42.62 74.0 Not Reported 1.34 E 2.01 SE 2.01 SE No 0.000 No Precipitation 05/06/2019 06:27 PM 05/06/2019 07:12 PM 0.000 0.000 0.000 0.000 0.000 Not Reported Not Reported
05/15/2019 05:23 AM 46.04 42.62 38.66 70.52 42.62 75.0 Not Reported 0.89 SE 0.22 NE 3.13 SE No 0.000 No Precipitation 05/06/2019 06:27 PM 05/06/2019 07:12 PM 0.000 0.000 0.000 0.000 0.000 Not Reported Not Reported
05/15/2019 05:38 AM 46.04 42.44 38.48 70.52 42.62 74.0 Not Reported 0.00 NW 0.00 NW 1.12 S No 0.000 No Precipitation 05/06/2019 06:27 PM 05/06/2019 07:12 PM 0.000 0.000 0.000 0.000 0.000 Not Reported Not Reported
05/15/2019 05:53 AM 45.68 42.26 38.30 70.52 42.62 75.0 Not Reported 0.89 SE 1.79 SE 1.12 SE No 0.000 No Precipitation 05/06/2019 06:27 PM 05/06/2019 07:12 PM 0.000 0.000 0.000 0.000 0.000 Not Reported Not Reported
05/15/2019 06:08 AM 45.32 42.26 38.66 70.52 42.62 76.0 Not Reported 1.57 SE 1.57 SE 1.79 SE No 0.000 No Precipitation 05/06/2019 06:27 PM 05/06/2019 07:12 PM 0.000 0.000 0.000 0.000 0.000 Not Reported Not Reported
05/15/2019 06:23 AM 45.32 42.08 38.66 70.52 42.62 77.0 Not Reported 1.57 SE 0.00 NE 2.46 SE No 0.000 No Precipitation 05/06/2019 06:27 PM 05/06/2019 07:12 PM 0.000 0.000 0.000 0.000 0.000 Not Reported Not Reported
05/15/2019 06:38 AM 45.32 42.08 38.66 70.52 42.62 76.0 Not Reported 0.22 SE 2.46 SE 1.79 SE No 0.000 No Precipitation 05/06/2019 06:27 PM 05/06/2019 07:12 PM 0.000 0.000 0.000 0.000 0.000 Not Reported Not Reported
05/15/2019 06:53 AM 45.86 42.26 38.48 70.52 42.62 74.0 Not Reported 2.91 S 3.13 S 4.03 SE No 0.000 No Precipitation 05/06/2019 06:27 PM 05/06/2019 07:12 PM 0.000 0.000 0.000 0.000 0.000 Not Reported Not Reported
05/15/2019 07:08 AM 45.32 42.80 39.92 70.52 42.62 80.0 Not Reported 0.00 N 0.00 NW 3.36 S No 0.000 No Precipitation 05/06/2019 06:27 PM 05/06/2019 07:12 PM 0.000 0.000 0.000 0.000 0.000 Not Reported Not Reported
05/15/2019 07:23 AM 45.50 42.80 39.56 70.52 42.62 80.0 Not Reported 2.24 S 1.12 E 2.68 S No 0.000 No Precipitation 05/06/2019 06:27 PM 05/06/2019 07:12 PM 0.000 0.000 0.000 0.000 0.000 Not Reported Not Reported
05/15/2019 07:38 AM 45.50 42.98 40.46 70.52 42.62 82.0 Not Reported 2.24 S 2.24 SE 2.91 SE No 0.000 No Precipitation 05/06/2019 06:27 PM 05/06/2019 07:12 PM 0.000 0.000 0.000 0.000 0.000 Not Reported Not Reported
05/15/2019 07:53 AM 44.78 43.16 41.54 70.52 42.62 88.0 Not Reported 0.00 E 0.22 SE 2.46 SE Yes 0.043 Rain Slight 05/14/2019 11:49 PM   0.008 0.008 0.008 0.008 0.008 Not Reported Not Reported
05/15/2019 08:08 AM 45.14 44.24 42.80 70.52 42.62 92.0 Not Reported 0.89 NW 2.91 NW 2.24 S No 0.000 No Precipitation 05/14/2019 11:49 PM 05/14/2019 11:54 PM 0.008 0.008 0.008 0.008 0.008 Not Reported Not Reported
05/15/2019 08:23 AM 45.32 44.42 43.16 70.52 42.62 92.0 Not Reported 0.00 N 0.00 SE 0.89 SE No 0.000 No Precipitation 05/15/2019 12:09 AM 05/15/2019 12:14 AM 0.012 0.012 0.012 0.012 0.012 Not Reported Not Reported
05/15/2019 08:38 AM 46.04 45.14 44.42 70.52 42.62 93.0 Not Reported 0.00 N 0.00 S 1.34 SE Yes 0.043 Rain Slight 05/15/2019 12:36 AM   0.020 0.020 0.020 0.020 0.020 Not Reported Not Reported
05/15/2019 08:53 AM 46.22 45.32 44.42 70.52 42.62 93.0 Not Reported 0.45 SE 0.00 SE 0.67 SE No 0.000 No Precipitation 05/15/2019 12:42 AM 05/15/2019 12:47 AM 0.016 0.024 0.024 0.024 0.024 Not Reported Not Reported
05/15/2019 09:08 AM 46.58 45.86 44.96 70.52 42.62 94.0 Not Reported 0.45 E 0.00 E 1.34 SE No 0.000 No Precipitation 05/15/2019 12:56 AM 05/15/2019 01:01 AM 0.020 0.028 0.028 0.028 0.028 Not Reported Not Reported
05/15/2019 09:23 AM 46.58 46.04 44.96 70.52 42.62 94.0 Not Reported 0.00 SE 0.89 SE 1.79 E Yes 0.043 Rain Slight 05/15/2019 01:22 AM   0.020 0.031 0.031 0.031 0.031 Not Reported Not Reported
05/15/2019 09:38 AM 47.12 46.22 45.50 70.52 42.62 93.0 Not Reported 0.22 SE 0.00 SE 2.24 SE No 0.000 No Precipitation 05/15/2019 01:22 AM 05/15/2019 01:27 AM 0.012 0.031 0.031 0.031 0.031 Not Reported Not Reported
05/15/2019 09:53 AM 47.48 46.76 45.86 70.52 42.62 94.0 Not Reported 0.00 E 0.00 SE 0.22 SE Yes 0.043 Rain Slight 05/15/2019 01:45 AM   0.016 0.039 0.039 0.039 0.039 Not Reported Not Reported
05/15/2019 10:08 AM 47.12 46.40 45.50 70.52 42.62 93.0 Not Reported 0.45 NW 1.57 N 1.12 NW Yes 0.085 Rain Moderate 05/15/2019 01:45 AM   0.031 0.059 0.059 0.059 0.059 Not Reported Not Reported
05/15/2019 10:23 AM 47.12 46.22 45.32 70.52 42.62 93.0 Not Reported 1.57 NW 2.68 W 2.46 W Yes 0.043 Rain Slight 05/15/2019 01:45 AM   0.043 0.075 0.075 0.075 0.075 Not Reported Not Reported
05/15/2019 10:38 AM 47.48 46.58 45.68 70.52 42.62 94.0 Not Reported 0.22 SW 0.00 W 2.68 W Yes 0.043 Rain Slight 05/15/2019 01:45 AM   0.063 0.091 0.091 0.091 0.091 Not Reported Not Reported
05/15/2019 10:53 AM 47.48 46.76 45.86 70.52 42.62 94.0 Not Reported 0.00 N 0.00 NE 0.45 N Yes 0.043 Rain Slight 05/15/2019 02:51 AM   0.067 0.094 0.102 0.102 0.102 Not Reported Not Reported
05/15/2019 11:08 AM 48.02 47.12 46.40 70.52 42.62 93.0 Not Reported 0.00 N 0.00 E 0.00 N Yes 0.085 Rain Moderate 05/15/2019 02:51 AM   0.067 0.114 0.122 0.122 0.122 Not Reported Not Reported
05/15/2019 11:23 AM 48.56 47.48 46.94 70.52 42.62 94.0 Not Reported 0.45 E 0.89 SE 2.91 SE Yes 0.043 Rain Slight 05/15/2019 02:51 AM   0.067 0.126 0.138 0.138 0.138 Not Reported Not Reported
05/15/2019 11:38 AM 49.28 48.56 47.48 70.52 42.62 94.0 Not Reported 0.89 E 1.34 S 3.13 SE No 0.000 No Precipitation 05/15/2019 03:29 AM 05/15/2019 03:34 AM 0.051 0.122 0.142 0.142 0.142 Not Reported Not Reported
05/15/2019 11:53 AM 49.64 48.56 47.48 70.52 42.62 92.0 Not Reported 2.68 E 0.67 E 3.36 SE No 0.000 No Precipitation 05/15/2019 03:29 AM 05/15/2019 03:34 AM 0.039 0.118 0.142 0.142 0.142 Not Reported Not Reported
05/15/2019 12:08 PM 49.10 47.84 46.76 70.52 42.62 91.0 Not Reported 1.57 SE 2.01 E 4.03 SE No 0.000 No Precipitation 05/15/2019 03:59 AM 05/15/2019 04:04 AM 0.024 0.118 0.146 0.146 0.146 Not Reported Not Reported
05/15/2019 12:23 PM 49.28 48.20 47.12 70.52 42.62 91.0 Not Reported 2.24 SE 2.01 S 2.91 SE Yes 0.043 Rain Slight 05/15/2019 04:13 AM   0.016 0.122 0.154 0.154 0.154 Not Reported Not Reported
05/15/2019 12:38 PM 49.46 47.66 46.58 70.52 42.62 89.0 Not Reported 3.13 SE 3.13 SE 4.70 SE No 0.000 No Precipitation 05/15/2019 04:13 AM 05/15/2019 04:28 AM 0.016 0.126 0.157 0.157 0.157 Not Reported Not Reported
05/15/2019 12:53 PM 49.28 47.84 46.58 70.52 42.62 90.0 Not Reported 0.00 S 0.00 S 3.36 SE No 0.043 Rain Slight 05/15/2019 04:47 AM 05/15/2019 04:52 AM 0.020 0.122 0.161 0.161 0.161 Not Reported Not Reported
05/15/2019 01:08 PM 48.92 48.02 46.76 70.52 42.62 91.0 Not Reported 0.00 E 0.00 NE 0.67 S Yes 0.043 Rain Slight 05/15/2019 04:54 AM   0.031 0.118 0.177 0.177 0.177 Not Reported Not Reported
05/15/2019 01:23 PM 49.28 47.66 46.40 70.52 42.62 88.0 Not Reported 1.34 N 1.12 N 1.79 W No 0.000 No Precipitation 05/15/2019 04:54 AM 05/15/2019 05:09 AM 0.024 0.102 0.177 0.177 0.177 Not Reported Not Reported
05/15/2019 01:38 PM 47.84 46.58 45.14 70.52 42.62 90.0 Not Reported 0.67 SE 0.00 SE 3.13 N Yes 0.043 Rain Slight 05/15/2019 05:36 AM   0.028 0.091 0.185 0.185 0.185 Not Reported Not Reported
05/15/2019 01:53 PM 48.20 47.12 45.50 70.52 42.62 89.0 Not Reported 1.12 S 2.24 E 2.91 SE No 0.000 No Precipitation 05/15/2019 05:46 AM 05/15/2019 05:51 AM 0.028 0.087 0.181 0.189 0.189 Not Reported Not Reported
05/15/2019 02:08 PM 48.92 47.30 45.68 70.52 42.62 89.0 Not Reported 2.24 S 0.89 SE 4.47 SE No 0.000 No Precipitation 05/15/2019 05:53 AM 05/15/2019 05:58 AM 0.016 0.071 0.185 0.193 0.193 Not Reported Not Reported
05/15/2019 02:23 PM 49.46 47.66 46.40 70.52 42.62 88.0 Not Reported 0.45 E 0.22 SE 2.01 S No 0.000 No Precipitation 05/15/2019 06:11 AM 05/15/2019 06:16 AM 0.020 0.059 0.185 0.197 0.197 Not Reported Not Reported
05/15/2019 02:38 PM 49.64 47.66 46.76 70.52 42.62 89.0 Not Reported 0.45 SE 2.91 SE 1.12 E Yes 0.043 Rain Slight 05/15/2019 06:37 AM   0.020 0.063 0.185 0.205 0.205 Not Reported Not Reported
05/15/2019 02:53 PM 50.00 48.20 46.94 70.52 42.62 88.0 Not Reported 0.45 SE 0.89 SE 2.68 SE Yes 0.043 Rain Slight 05/15/2019 06:49 AM   0.024 0.071 0.189 0.213 0.213 Not Reported Not Reported
05/15/2019 03:08 PM 49.64 48.20 46.22 70.52 42.62 88.0 Not Reported 0.89 SE 2.01 SE 2.46 SE Yes 0.043 Rain Slight 05/15/2019 07:00 AM   0.031 0.079 0.197 0.224 0.224 Not Reported Not Reported
05/15/2019 03:23 PM 50.18 48.74 47.48 70.52 42.62 90.0 Not Reported 1.79 SE 0.67 E 2.91 SE Yes 0.043 Rain Slight 05/15/2019 07:10 AM   0.039 0.083 0.205 0.236 0.236 Not Reported Not Reported
05/15/2019 03:38 PM 50.90 49.10 47.84 70.52 42.62 89.0 Not Reported 1.12 NW 0.00 NW 2.24 SE No 0.000 No Precipitation 05/15/2019 07:10 AM 05/15/2019 07:37 AM 0.043 0.091 0.217 0.248 0.248 Not Reported Not Reported
05/15/2019 03:53 PM 50.72 48.92 47.66 70.52 42.62 89.0 Not Reported 1.79 NW 2.46 W 2.91 N Yes 0.043 Rain Slight 05/15/2019 07:48 AM   0.039 0.091 0.213 0.252 0.252 Not Reported Not Reported
05/15/2019 04:08 PM 49.82 48.02 47.12 70.52 42.62 90.0 Not Reported 0.45 SE 1.12 S 3.13 NW Yes 0.043 Rain Slight 05/15/2019 08:05 AM   0.031 0.079 0.197 0.256 0.256 Not Reported Not Reported
05/15/2019 04:23 PM 49.46 48.02 46.94 70.52 42.62 90.0 Not Reported 0.22 SW 1.57 S 2.46 SE No 0.000 No Precipitation 05/15/2019 08:16 AM 05/15/2019 08:21 AM 0.024 0.083 0.185 0.260 0.260 Not Reported Not Reported
05/15/2019 04:38 PM 49.28 47.66 46.94 70.52 42.62 90.0 Not Reported 0.89 SE 1.12 S 2.46 N No 0.000 No Precipitation 05/15/2019 08:25 AM 05/15/2019 08:30 AM 0.016 0.079 0.169 0.264 0.264 Not Reported Not Reported
05/15/2019 04:53 PM 48.92 47.66 46.76 70.52 42.62 91.0 Not Reported 1.12 E 1.12 NE 1.57 SE Yes 0.043 Rain Slight 05/15/2019 08:48 AM   0.020 0.083 0.165 0.272 0.272 Not Reported Not Reported
05/15/2019 05:08 PM 49.46 48.02 46.94 70.52 42.62 91.0 Not Reported 0.67 SE 3.36 SE 2.68 SE No 0.000 No Precipitation 05/15/2019 08:59 AM 05/15/2019 09:04 AM 0.020 0.083 0.150 0.276 0.276 Not Reported Not Reported
05/15/2019 05:23 PM 49.28 47.84 46.76 70.52 42.62 90.0 Not Reported 0.45 SE 0.45 SE 2.46 S No 0.000 No Precipitation 05/15/2019 08:59 AM 05/15/2019 09:04 AM 0.016 0.079 0.134 0.276 0.276 Not Reported Not Reported
05/15/2019 05:38 PM 49.10 47.84 47.12 70.52 42.62 92.0 Not Reported 2.46 SE 3.58 SE 4.03 SE No 0.000 No Precipitation 05/15/2019 09:29 AM 05/15/2019 09:34 AM 0.016 0.075 0.134 0.280 0.280 Not Reported Not Reported
05/15/2019 05:53 PM 48.74 47.66 46.22 70.52 42.62 91.0 Not Reported 4.03 SE 3.58 SE 4.03 SE No 0.000 No Precipitation 05/15/2019 09:39 AM 05/15/2019 09:44 AM 0.012 0.071 0.138 0.283 0.283 Not Reported Not Reported
05/15/2019 06:08 PM 49.46 48.38 47.12 70.52 42.62 91.0 Not Reported 2.24 SE 1.79 SE 6.04 SE No 0.000 No Precipitation 05/15/2019 09:39 AM 05/15/2019 09:44 AM 0.008 0.059 0.134 0.283 0.283 Not Reported Not Reported
05/15/2019 06:23 PM 49.46 48.20 47.12 70.52 42.62 91.0 Not Reported 1.79 SE 2.24 SE 3.13 SE No 0.000 No Precipitation 05/15/2019 09:39 AM 05/15/2019 09:44 AM 0.008 0.047 0.126 0.283 0.283 Not Reported Not Reported
05/15/2019 06:38 PM 49.64 48.38 47.30 70.52 42.62 90.0 Not Reported 2.91 SE 1.79 SE 3.36 SE Yes 0.043 Rain Slight 05/15/2019 10:33 AM   0.008 0.039 0.126 0.287 0.287 Not Reported Not Reported
05/15/2019 06:53 PM 49.64 48.20 47.12 70.52 42.62 90.0 Not Reported 1.34 S 2.91 SE 4.03 SE No 0.000 No Precipitation 05/15/2019 10:33 AM 05/15/2019 10:38 AM 0.004 0.035 0.122 0.287 0.287 Not Reported Not Reported
05/15/2019 07:08 PM 49.28 48.20 46.76 70.52 42.62 91.0 Not Reported 1.34 S 0.00 NE 2.91 SE No 0.000 No Precipitation 05/15/2019 10:33 AM 05/15/2019 10:38 AM 0.004 0.031 0.106 0.287 0.287 Not Reported Not Reported
05/15/2019 07:23 PM 49.28 48.20 47.12 70.52 42.62 91.0 Not Reported 1.12 E 0.22 NE 3.80 SE No 0.000 No Precipitation 05/15/2019 10:33 AM 05/15/2019 10:38 AM 0.004 0.028 0.106 0.287 0.287 Not Reported Not Reported
05/15/2019 07:38 PM 48.92 47.84 46.76 70.52 42.62 92.0 Not Reported 0.67 E 3.36 W 2.91 SE No 0.000 No Precipitation 05/15/2019 10:33 AM 05/15/2019 10:38 AM 0.000 0.024 0.098 0.287 0.287 Not Reported Not Reported
05/15/2019 07:53 PM 48.38 47.12 46.04 70.52 42.62 90.0 Not Reported 1.79 S 3.13 SE 4.47 SE No 0.000 No Precipitation 05/15/2019 10:33 AM 05/15/2019 10:38 AM 0.000 0.016 0.094 0.280 0.287 Not Reported Not Reported
05/15/2019 08:08 PM 47.66 46.76 45.68 70.52 42.62 93.0 Not Reported 2.24 SE 0.89 NE 3.13 SE No 0.000 No Precipitation 05/15/2019 10:33 AM 05/15/2019 10:38 AM 0.000 0.012 0.091 0.280 0.287 Not Reported Not Reported
05/15/2019 08:23 PM 47.48 46.22 45.68 70.52 42.62 92.0 Not Reported 1.34 SE 3.13 S 2.68 SE No 0.000 No Precipitation 05/15/2019 10:33 AM 05/15/2019 10:38 AM 0.000 0.012 0.091 0.276 0.287 Not Reported Not Reported
05/15/2019 08:38 PM 47.12 46.40 45.68 70.52 42.62 94.0 Not Reported 1.12 S 1.79 SW 3.80 SE Yes 0.043 Rain Slight 05/15/2019 12:37 PM   0.012 0.020 0.091 0.280 0.299 Not Reported Not Reported
05/15/2019 08:53 PM 47.30 46.40 45.86 70.52 42.62 94.0 Not Reported 0.00 N 0.00 E 0.45 NW Yes 0.085 Rain Moderate 05/15/2019 12:37 PM   0.031 0.035 0.102 0.295 0.319 Not Reported Not Reported
05/15/2019 09:08 PM 46.76 46.22 45.50 70.52 42.62 94.0 Not Reported 0.22 E 1.57 SE 1.34 SE Yes 0.085 Rain Moderate 05/15/2019 12:37 PM   0.051 0.055 0.110 0.311 0.339 Not Reported Not Reported
05/15/2019 09:23 PM 46.76 46.04 45.50 70.52 42.62 95.0 Not Reported 2.01 SE 0.00 E 2.01 SE No 0.000 No Precipitation 05/15/2019 12:37 PM 05/15/2019 01:22 PM 0.063 0.067 0.110 0.323 0.350 Not Reported Not Reported
05/15/2019 09:38 PM 46.76 46.04 45.50 70.52 42.62 95.0 Not Reported 0.22 SE 0.00 NE 2.91 SE Yes 0.043 Rain Slight 05/15/2019 01:36 PM   0.059 0.071 0.106 0.327 0.358 Not Reported Not Reported
05/15/2019 09:53 PM 46.76 46.22 45.50 70.52 42.62 95.0 Not Reported 0.67 N 0.00 S 0.89 NW Yes 0.043 Rain Slight 05/15/2019 01:36 PM   0.051 0.087 0.114 0.335 0.374 Not Reported Not Reported
05/15/2019 10:08 PM 46.58 46.04 45.50 70.52 42.62 95.0 Not Reported 0.67 E 0.22 E 1.34 N Yes 0.085 Rain Moderate 05/15/2019 01:59 PM   0.047 0.094 0.126 0.327 0.390 Not Reported Not Reported
05/15/2019 10:23 PM 46.22 45.68 45.14 70.52 42.62 95.0 Not Reported 2.68 SE 1.34 SE 2.01 SE Yes 0.085 Rain Moderate 05/15/2019 01:59 PM   0.059 0.118 0.146 0.335 0.413 Not Reported Not Reported
05/15/2019 10:38 PM 46.22 45.68 45.32 70.52 42.62 95.0 Not Reported 1.79 S 1.12 E 3.80 SE Yes 0.043 Rain Slight 05/15/2019 02:34 PM   0.063 0.130 0.154 0.327 0.425 Not Reported Not Reported
05/15/2019 10:53 PM 46.22 45.68 45.32 70.52 42.62 96.0 Not Reported 1.57 SE 0.67 SE 1.79 SE No 0.000 No Precipitation 05/15/2019 02:34 PM 05/15/2019 02:39 PM 0.051 0.130 0.146 0.315 0.425 Not Reported Not Reported
05/15/2019 11:08 PM 46.04 45.50 44.96 70.52 42.62 95.0 Not Reported 0.22 E 0.45 S 1.79 SE Yes 0.043 Rain Slight 05/15/2019 03:02 PM   0.039 0.134 0.146 0.299 0.429 Not Reported Not Reported
05/15/2019 11:23 PM 46.04 45.50 44.96 70.52 42.62 96.0 Not Reported 0.67 SE 2.01 SE 0.22 E Yes 0.043 Rain Slight 05/15/2019 03:08 PM   0.031 0.150 0.161 0.299 0.445 Not Reported Not Reported
05/15/2019 11:38 PM 46.04 45.50 44.96 70.52 42.62 96.0 Not Reported 0.67 SE 1.34 SW 2.01 SE Yes 0.085 Rain Moderate 05/15/2019 03:08 PM   0.043 0.165 0.181 0.323 0.469 Not Reported Not Reported
05/15/2019 11:53 PM 45.86 45.50 44.78 70.52 42.62 96.0 Not Reported 0.45 NE 0.67 NE 3.13 SE Yes 0.128 Rain Moderate 05/15/2019 03:08 PM   0.075 0.173 0.209 0.350 0.500 Not Reported Not Reported